createdAt,value
2023-01-19T00:01:29.316Z,97833.84
2023-01-19T00:03:57.316Z,97834.59
2023-01-19T00:06:25.264Z,97838.22
2023-01-19T00:08:53.239Z,97839.00
2023-01-19T00:11:21.410Z,97822.91
2023-01-19T00:13:51.125Z,97836.81
2023-01-19T00:16:22.996Z,97836.88
2023-01-19T00:18:54.016Z,97837.72
2023-01-19T00:21:22.750Z,97835.25
2023-01-19T00:23:52.652Z,97840.75
2023-01-19T00:26:22.349Z,97843.22
2023-01-19T00:28:51.120Z,97849.31
2023-01-19T00:31:21.848Z,97850.78
2023-01-19T00:33:51.630Z,97850.22
2023-01-19T00:36:21.735Z,97834.16
2023-01-19T00:38:49.621Z,97852.03
2023-01-19T00:41:17.633Z,97829.38
2023-01-19T00:43:44.848Z,97832.59
2023-01-19T00:46:12.857Z,97853.75
2023-01-19T00:48:40.819Z,97852.97
2023-01-19T00:51:08.938Z,97843.03
2023-01-19T00:53:38.260Z,97858.41
2023-01-19T00:56:06.908Z,97865.41
2023-01-19T00:58:34.823Z,97850.22
2023-01-19T01:01:04.872Z,97863.00
2023-01-19T01:03:33.646Z,97857.00
2023-01-19T01:06:01.669Z,97863.84
2023-01-19T01:08:29.809Z,97870.88
2023-01-19T01:10:59.202Z,97860.59
2023-01-19T01:13:28.326Z,97858.13
2023-01-19T01:15:58.238Z,97862.22
2023-01-19T01:18:26.604Z,97882.94
2023-01-19T01:20:56.315Z,97877.03
2023-01-19T01:23:24.456Z,97877.66
2023-01-19T01:25:52.380Z,97871.81
2023-01-19T01:28:21.760Z,97885.75
2023-01-19T01:30:49.745Z,97881.69
2023-01-19T01:33:40.404Z,97886.75
2023-01-19T01:36:06.291Z,97893.53
2023-01-19T01:38:34.428Z,97863.97
2023-01-19T01:41:02.407Z,97897.41
2023-01-19T01:43:45.717Z,97895.78
2023-01-19T01:46:16.293Z,97881.53
2023-01-19T01:48:49.966Z,97891.66
2023-01-19T01:51:26.425Z,97881.22
2023-01-19T01:54:08.020Z,97902.72
2023-01-19T01:56:38.928Z,97888.28
2023-01-19T01:59:13.583Z,97856.66
2023-01-19T02:01:58.839Z,97905.63
2023-01-19T02:04:28.227Z,97908.34
2023-01-19T02:07:13.543Z,97907.13
2023-01-19T02:09:59.077Z,97910.50
2023-01-19T02:12:44.690Z,97912.97
2023-01-19T02:15:20.266Z,97905.09
2023-01-19T02:17:48.976Z,97915.03
2023-01-19T02:20:17.817Z,97905.69
2023-01-19T02:22:51.007Z,97890.63
2023-01-19T02:25:21.200Z,97891.88
2023-01-19T02:27:50.258Z,97904.88
2023-01-19T02:30:18.981Z,97898.81
2023-01-19T02:32:47.106Z,97889.22
2023-01-19T02:35:15.271Z,97863.81
2023-01-19T02:37:45.546Z,97894.19
2023-01-19T02:40:16.325Z,97904.47
2023-01-19T02:42:49.758Z,97893.41
2023-01-19T02:45:21.730Z,97891.44
2023-01-19T02:47:52.607Z,97892.47
2023-01-19T02:50:41.833Z,97901.91
2023-01-19T02:54:03.412Z,97911.25
2023-01-19T02:57:06.791Z,97901.91
2023-01-19T02:59:49.218Z,97900.88
2023-01-19T03:02:29.080Z,97897.53
2023-01-19T03:05:17.380Z,97907.84
2023-01-19T03:07:54.708Z,97897.63
2023-01-19T03:10:33.151Z,97893.47
2023-01-19T03:13:08.410Z,97860.44
2023-01-19T03:15:44.876Z,97872.44
2023-01-19T03:18:15.965Z,97901.84
2023-01-19T03:20:45.528Z,97904.31
2023-01-19T03:23:16.709Z,97898.53
2023-01-19T03:25:47.758Z,97910.84
2023-01-19T03:28:18.540Z,97898.22
2023-01-19T03:30:54.750Z,97905.06
2023-01-19T03:33:28.016Z,97904.28
2023-01-19T03:36:03.795Z,97891.66
2023-01-19T03:38:35.632Z,97897.84
2023-01-19T03:41:05.935Z,97885.22
2023-01-19T03:43:36.454Z,97902.16
2023-01-19T03:46:07.573Z,97898.63
2023-01-19T03:48:35.861Z,97898.44
2023-01-19T03:51:05.449Z,97894.53
2023-01-19T03:53:33.524Z,97876.19
2023-01-19T03:56:01.798Z,97890.78
2023-01-19T03:58:29.751Z,97877.09
2023-01-19T04:00:57.781Z,97888.09
2023-01-19T04:03:27.116Z,97893.84
2023-01-19T04:05:57.522Z,97894.69
2023-01-19T04:08:25.444Z,97890.53
2023-01-19T04:10:53.411Z,97886.97
2023-01-19T04:13:21.381Z,97903.31
2023-01-19T04:15:49.380Z,97904.22
2023-01-19T04:18:17.416Z,97896.66
2023-01-19T04:20:46.960Z,97877.44
2023-01-19T04:23:14.835Z,97906.50
2023-01-19T04:25:42.766Z,97891.13
2023-01-19T04:28:10.641Z,97895.38
2023-01-19T04:30:38.913Z,97910.81
2023-01-19T04:33:07.105Z,97926.50
2023-01-19T04:35:35.585Z,97921.44
2023-01-19T04:38:04.971Z,97928.19
2023-01-19T04:40:32.977Z,97922.47
2023-01-19T04:43:01.356Z,97925.84
2023-01-19T04:45:29.498Z,97904.63
2023-01-19T04:47:57.479Z,97924.28
2023-01-19T04:50:25.620Z,97912.88
2023-01-19T04:52:53.615Z,97929.44
2023-01-19T04:55:22.953Z,97923.75
2023-01-19T04:57:50.989Z,97924.88
2023-01-19T05:00:20.882Z,97920.50
2023-01-19T05:02:49.102Z,97930.72
2023-01-19T05:05:17.637Z,97923.63
2023-01-19T05:07:45.731Z,97924.63
2023-01-19T05:10:13.931Z,97927.13
2023-01-19T05:12:43.334Z,97925.31
2023-01-19T05:15:12.026Z,97914.09
2023-01-19T05:17:39.912Z,97917.56
2023-01-19T05:20:10.463Z,97933.28
2023-01-19T05:22:38.490Z,97940.75
2023-01-19T05:25:08.819Z,97930.13
2023-01-19T05:27:37.156Z,97930.91
2023-01-19T05:30:07.972Z,97942.91
2023-01-19T05:32:35.966Z,97939.97
2023-01-19T05:35:03.962Z,97939.34
2023-01-19T05:37:32.716Z,97934.50
2023-01-19T05:40:00.691Z,97931.97
2023-01-19T05:42:28.944Z,97950.47
2023-01-19T05:44:57.479Z,97958.28
2023-01-19T05:47:27.019Z,97952.81
2023-01-19T05:49:55.252Z,97939.19
2023-01-19T05:52:25.008Z,97946.16
2023-01-19T05:54:55.179Z,97952.22
2023-01-19T05:57:23.369Z,97954.97
2023-01-19T05:59:51.467Z,97932.88
2023-01-19T06:02:19.424Z,97949.03
2023-01-19T06:04:48.754Z,97971.97
2023-01-19T06:07:16.718Z,97967.41
2023-01-19T06:09:44.687Z,97972.03
2023-01-19T06:12:12.589Z,97968.84
2023-01-19T06:14:40.963Z,97975.09
2023-01-19T06:17:08.900Z,97974.84
2023-01-19T06:19:36.942Z,97982.97
2023-01-19T06:22:06.390Z,97984.81
2023-01-19T06:24:34.358Z,97945.84
2023-01-19T06:27:02.265Z,97979.91
2023-01-19T06:29:30.202Z,97984.63
2023-01-19T06:31:58.253Z,97988.28
2023-01-19T06:34:29.092Z,97979.84
2023-01-19T06:36:57.335Z,97977.25
2023-01-19T06:39:27.541Z,97990.44
2023-01-19T06:41:55.527Z,97996.72
2023-01-19T06:44:23.487Z,97992.16
2023-01-19T06:46:51.399Z,97991.81
2023-01-19T06:49:39.357Z,97997.38
2023-01-19T06:52:07.922Z,97989.91
2023-01-19T06:54:37.380Z,97993.19
2023-01-19T06:57:06.149Z,97998.38
2023-01-19T06:59:34.146Z,97970.56
2023-01-19T07:02:26.461Z,97970.75
2023-01-19T07:04:50.064Z,97984.06
2023-01-19T07:07:18.025Z,97994.94
2023-01-19T07:09:47.411Z,97969.59
2023-01-19T07:12:16.047Z,98002.94
2023-01-19T07:14:44.220Z,98001.31
2023-01-19T07:17:13.438Z,97998.41
2023-01-19T07:19:41.420Z,97988.66
2023-01-19T07:22:09.331Z,97996.13
2023-01-19T07:24:38.260Z,98004.94
2023-01-19T07:27:07.706Z,98003.31
2023-01-19T07:29:35.664Z,98003.78
2023-01-19T07:32:03.613Z,98010.50
2023-01-19T07:34:31.811Z,98003.69
2023-01-19T07:36:59.762Z,98007.63
2023-01-19T07:39:27.947Z,98001.75
2023-01-19T07:41:55.825Z,98009.19
2023-01-19T07:44:25.086Z,98011.47
2023-01-19T07:46:52.995Z,98009.75
2023-01-19T07:49:21.768Z,98016.47
2023-01-19T07:51:49.731Z,98012.31
2023-01-19T07:54:17.627Z,98010.13
2023-01-19T07:56:45.584Z,97976.66
2023-01-19T07:59:13.664Z,98011.47
2023-01-19T08:01:43.182Z,98008.75
2023-01-19T08:04:11.688Z,98007.22
2023-01-19T08:06:41.617Z,98020.66
2023-01-19T08:09:10.114Z,98028.31
2023-01-19T08:11:38.088Z,98028.25
2023-01-19T08:14:07.939Z,98029.94
2023-01-19T08:16:36.186Z,98032.50
2023-01-19T08:19:05.735Z,98040.97
2023-01-19T08:21:35.674Z,98027.47
2023-01-19T08:24:03.667Z,98038.41
2023-01-19T08:26:33.689Z,98057.97
2023-01-19T08:29:03.316Z,98056.25
2023-01-19T08:31:31.656Z,98062.13
2023-01-19T08:34:00.191Z,98067.28
2023-01-19T08:36:29.532Z,98061.63
2023-01-19T08:38:57.456Z,98053.00
2023-01-19T08:41:25.352Z,98061.91
2023-01-19T08:43:53.271Z,98048.91
2023-01-19T08:46:22.016Z,98051.06
2023-01-19T08:48:50.550Z,98064.41
2023-01-19T08:51:19.256Z,98059.81
2023-01-19T08:53:48.691Z,98064.31
2023-01-19T08:56:18.011Z,98065.25
2023-01-19T08:58:53.647Z,98076.34
2023-01-19T09:01:31.517Z,98075.50
2023-01-19T09:03:59.514Z,98079.88
2023-01-19T09:06:28.495Z,98072.31
2023-01-19T09:08:58.170Z,98073.94
2023-01-19T09:11:26.101Z,98079.72
2023-01-19T09:13:54.234Z,98078.66
2023-01-19T09:16:22.382Z,98077.03
2023-01-19T09:18:50.348Z,98075.94
2023-01-19T09:21:18.729Z,98076.72
2023-01-19T09:23:46.613Z,98071.50
2023-01-19T09:26:16.980Z,98076.81
2023-01-19T09:28:44.908Z,98070.28
2023-01-19T09:31:13.423Z,98078.34
2023-01-19T09:33:41.960Z,98071.38
2023-01-19T09:36:34.747Z,98057.59
2023-01-19T09:44:20.599Z,98058.13
2023-01-19T09:46:48.559Z,98069.09
2023-01-19T09:49:18.442Z,98079.00
2023-01-19T09:51:49.143Z,98087.28
2023-01-19T09:54:19.618Z,98070.28
2023-01-19T09:56:52.433Z,98076.94
2023-01-19T09:59:25.319Z,98074.69
2023-01-19T10:02:07.049Z,98076.94
2023-01-19T10:04:51.332Z,98082.06
2023-01-19T10:07:24.740Z,98094.06
2023-01-19T10:13:39.889Z,98009.03
2023-01-19T10:16:23.320Z,98072.81
2023-01-19T10:19:12.990Z,98078.53
2023-01-19T10:21:44.481Z,98049.63
2023-01-19T10:24:19.516Z,98089.91
2023-01-19T10:26:49.937Z,98101.06
2023-01-19T10:29:26.109Z,98097.97
2023-01-19T10:35:23.520Z,98097.47
2023-01-19T10:37:52.987Z,98094.06
2023-01-19T10:40:33.252Z,98095.13
2023-01-19T10:43:01.671Z,98101.22
2023-01-19T10:45:32.278Z,98094.06
2023-01-19T10:48:07.489Z,98078.06
2023-01-19T10:50:39.896Z,98100.25
2023-01-19T10:53:19.216Z,98098.97
2023-01-19T10:55:47.331Z,98091.41
2023-01-19T10:58:29.781Z,98094.53
2023-01-19T11:01:14.749Z,98088.28
2023-01-19T11:03:44.529Z,98080.50
2023-01-19T11:06:25.403Z,98065.03
2023-01-19T11:08:54.775Z,98078.34
2023-01-19T11:11:24.736Z,98069.38
2023-01-19T11:14:10.140Z,98072.66
2023-01-19T11:16:40.159Z,98064.75
2023-01-19T11:19:20.292Z,98062.06
2023-01-19T11:21:48.506Z,98057.38
2023-01-19T11:24:16.674Z,98053.00
2023-01-19T11:26:48.043Z,98059.69
2023-01-19T11:29:19.967Z,98051.81
2023-01-19T11:31:49.082Z,98051.69
2023-01-19T11:34:32.903Z,98058.97
2023-01-19T11:37:03.045Z,98062.72
2023-01-19T11:39:33.157Z,98055.28
2023-01-19T11:42:04.394Z,98054.91
2023-01-19T11:44:36.532Z,98058.16
2023-01-19T11:47:09.534Z,98039.84
2023-01-19T11:49:45.345Z,98046.78
2023-01-19T11:52:21.319Z,98044.88
2023-01-19T11:54:57.766Z,98050.63
2023-01-19T11:57:26.082Z,98044.53
2023-01-19T11:59:56.376Z,98040.81
2023-01-19T12:02:29.693Z,98043.50
2023-01-19T12:05:05.759Z,98048.75
2023-01-19T12:07:37.680Z,98042.69
2023-01-19T12:10:20.970Z,98040.03
2023-01-19T12:12:49.566Z,98041.47
2023-01-19T12:15:31.798Z,98046.19
2023-01-19T12:18:03.395Z,98041.75
2023-01-19T12:20:38.727Z,98029.06
2023-01-19T12:23:21.074Z,98040.63
2023-01-19T12:26:00.773Z,98031.25
2023-01-19T12:28:31.517Z,98032.59
2023-01-19T12:31:02.139Z,98035.13
2023-01-19T12:33:38.155Z,98034.03
2023-01-19T12:36:14.419Z,98030.47
2023-01-19T12:38:47.570Z,98031.69
2023-01-19T12:41:24.832Z,98040.19
2023-01-19T12:44:25.339Z,98038.91
2023-01-19T12:46:57.443Z,98033.44
2023-01-19T12:49:29.249Z,98014.34
2023-01-19T12:52:17.406Z,98023.81
2023-01-19T12:54:54.524Z,98030.66
2023-01-19T12:57:26.764Z,98020.69
2023-01-19T12:59:59.700Z,98035.03
2023-01-19T13:02:47.037Z,98028.53
2023-01-19T13:05:18.746Z,98027.97
2023-01-19T13:08:17.087Z,98032.09
2023-01-19T13:11:19.736Z,98026.97
2023-01-19T13:14:27.621Z,98031.69
2023-01-19T13:17:05.595Z,98033.44
2023-01-19T13:19:48.236Z,98025.44
2023-01-19T13:23:04.832Z,98032.91
2023-01-19T13:25:36.729Z,98023.75
2023-01-19T13:28:12.091Z,98042.38
2023-01-19T13:30:50.107Z,98028.16
2023-01-19T13:33:22.909Z,98036.31
2023-01-19T13:35:58.684Z,98020.06
2023-01-19T13:38:29.808Z,98035.78
2023-01-19T13:41:03.226Z,98035.13
2023-01-19T13:43:37.142Z,98031.81
2023-01-19T13:46:05.563Z,98026.50
2023-01-19T13:48:34.228Z,98032.75
2023-01-19T13:51:05.176Z,98028.28
2023-01-19T13:53:34.244Z,98028.34
2023-01-19T13:56:17.644Z,98030.56
2023-01-19T13:58:58.153Z,98023.63
2023-01-19T14:01:29.258Z,98024.81
2023-01-19T14:03:58.064Z,98026.50
2023-01-19T14:06:34.787Z,98039.50
2023-01-19T14:09:23.998Z,98036.06
2023-01-19T14:12:17.629Z,98037.03
2023-01-19T14:14:48.386Z,98029.91
2023-01-19T14:17:25.271Z,98028.19
2023-01-19T14:19:54.870Z,98035.28
2023-01-19T14:22:22.929Z,98040.66
2023-01-19T14:24:50.891Z,98020.13
2023-01-19T14:27:25.313Z,98029.66
2023-01-19T14:29:55.020Z,98034.22
2023-01-19T14:32:24.464Z,98031.44
2023-01-19T14:35:16.376Z,98035.38
2023-01-19T14:37:50.178Z,98013.53
2023-01-19T14:40:21.912Z,98035.16
2023-01-19T14:42:54.564Z,98032.53
2023-01-19T14:45:26.627Z,98035.63
2023-01-19T14:47:57.887Z,98023.16
2023-01-19T14:50:27.830Z,98022.47
2023-01-19T14:53:00.394Z,98028.78
2023-01-19T14:55:34.863Z,98015.69
2023-01-19T14:58:11.201Z,98024.25
2023-01-19T15:00:39.362Z,98035.19
2023-01-19T15:03:07.458Z,98029.31
2023-01-19T15:05:35.831Z,98028.31
2023-01-19T15:08:05.412Z,98020.63
2023-01-19T15:10:33.728Z,98027.63
2023-01-19T15:13:02.145Z,98013.94
2023-01-19T15:15:33.282Z,98009.09
2023-01-19T15:18:03.783Z,98020.41
2023-01-19T15:20:32.140Z,98016.88
2023-01-19T15:23:00.093Z,98023.66
2023-01-19T15:25:28.058Z,98026.34
2023-01-19T15:27:59.850Z,98023.53
2023-01-19T15:30:31.055Z,98017.53
2023-01-19T15:33:20.809Z,98027.50
2023-01-19T15:35:49.105Z,98020.56
2023-01-19T15:38:17.101Z,98018.78
2023-01-19T15:40:45.008Z,98020.13
2023-01-19T15:43:12.959Z,98031.28
2023-01-19T15:45:43.519Z,98022.06
2023-01-19T15:48:13.205Z,98018.03
2023-01-19T15:50:44.098Z,98023.72
2023-01-19T15:53:15.865Z,98019.91
2023-01-19T15:55:43.832Z,98015.91
2023-01-19T15:58:13.982Z,98013.53
2023-01-19T16:00:42.556Z,98021.50
2023-01-19T16:03:11.883Z,98022.44
2023-01-19T16:05:43.751Z,98025.44
2023-01-19T16:08:13.383Z,98021.59
2023-01-19T16:10:42.188Z,98017.81
2023-01-19T16:13:10.851Z,98012.81
2023-01-19T16:15:42.330Z,98009.31
2023-01-19T16:18:10.319Z,98005.91
2023-01-19T16:20:38.309Z,98011.38
2023-01-19T16:23:21.363Z,98006.59
2023-01-19T16:25:58.910Z,98014.22
2023-01-19T16:28:27.731Z,98013.38
2023-01-19T16:30:55.770Z,98010.06
2023-01-19T16:33:23.769Z,98007.63
2023-01-19T16:35:51.722Z,98011.34
2023-01-19T16:38:20.119Z,98003.53
2023-01-19T16:40:48.440Z,97990.34
2023-01-19T16:43:18.680Z,97989.50
2023-01-19T16:46:01.149Z,98000.13
2023-01-19T16:48:29.593Z,98001.03
2023-01-19T16:51:02.887Z,98000.81
2023-01-19T16:53:31.784Z,98002.97
2023-01-19T16:55:59.779Z,98003.03
2023-01-19T16:58:29.136Z,98006.66
2023-01-19T17:00:57.140Z,97991.44
2023-01-19T17:03:25.142Z,97997.66
2023-01-19T17:05:53.111Z,98012.88
2023-01-19T17:08:21.952Z,98000.03
2023-01-19T17:10:49.893Z,97988.34
2023-01-19T17:13:18.012Z,97993.03
2023-01-19T17:15:47.365Z,97987.59
2023-01-19T17:18:15.316Z,97992.41
2023-01-19T17:20:43.244Z,97996.56
2023-01-19T17:23:11.170Z,98000.59
2023-01-19T17:25:39.150Z,97994.41
2023-01-19T17:28:07.064Z,97996.16
2023-01-19T17:30:35.104Z,97993.00
2023-01-19T17:33:04.509Z,97998.84
2023-01-19T17:35:35.191Z,97999.19
2023-01-19T17:38:03.103Z,98001.47
2023-01-19T17:40:31.485Z,97996.69
2023-01-19T17:42:59.698Z,98000.13
2023-01-19T17:45:27.729Z,97990.69
2023-01-19T17:47:55.619Z,97994.19
2023-01-19T17:50:24.977Z,97989.97
2023-01-19T17:52:52.952Z,98005.31
2023-01-19T17:55:21.020Z,98001.06
2023-01-19T17:57:49.071Z,97998.31
2023-01-19T18:00:18.083Z,97991.75
2023-01-19T18:02:46.081Z,97997.56
2023-01-19T18:05:14.815Z,97994.16
2023-01-19T18:07:44.215Z,97993.22
2023-01-19T18:10:13.892Z,97983.78
2023-01-19T18:12:42.044Z,97997.91
2023-01-19T18:15:10.886Z,98000.56
2023-01-19T18:17:40.816Z,98000.19
2023-01-19T18:20:10.319Z,97999.34
2023-01-19T18:22:38.394Z,97990.91
2023-01-19T18:25:08.458Z,97990.47
2023-01-19T18:27:36.367Z,97997.47
2023-01-19T18:30:04.482Z,97995.69
2023-01-19T18:32:32.405Z,97993.06
2023-01-19T18:35:00.976Z,97987.28
2023-01-19T18:37:28.929Z,97988.13
2023-01-19T18:39:59.781Z,97988.75
2023-01-19T18:42:29.367Z,97988.75
2023-01-19T18:44:57.383Z,97981.63
2023-01-19T18:47:25.451Z,97966.19
2023-01-19T18:49:53.416Z,97984.69
2023-01-19T18:52:21.376Z,97982.13
2023-01-19T18:54:49.575Z,97979.03
2023-01-19T18:57:17.964Z,97976.34
2023-01-19T18:59:48.883Z,97981.91
2023-01-19T19:02:16.855Z,97980.63
2023-01-19T19:04:44.867Z,97975.56
2023-01-19T19:07:13.443Z,97973.19
2023-01-19T19:09:42.742Z,97980.69
2023-01-19T19:12:11.026Z,97975.47
2023-01-19T19:14:39.417Z,97978.47
2023-01-19T19:17:10.344Z,97970.69
2023-01-19T19:19:40.823Z,97973.63
2023-01-19T19:22:09.069Z,97977.00
2023-01-19T19:24:38.241Z,97970.84
2023-01-19T19:27:06.923Z,97978.00
2023-01-19T19:29:35.240Z,97974.44
2023-01-19T19:32:03.266Z,97980.53
2023-01-19T19:34:33.383Z,97971.78
2023-01-19T19:37:01.531Z,97965.56
2023-01-19T19:39:29.750Z,97968.84
2023-01-19T19:41:57.628Z,97963.34
2023-01-19T19:44:25.578Z,97969.63
2023-01-19T19:46:53.522Z,97964.56
2023-01-19T19:49:21.555Z,97970.84
2023-01-19T19:51:51.000Z,97974.28
2023-01-19T19:54:18.906Z,97970.69
2023-01-19T19:56:48.443Z,97976.84
2023-01-19T19:59:16.356Z,97971.41
2023-01-19T20:01:45.393Z,97971.41
2023-01-19T20:04:14.814Z,97974.63
2023-01-19T20:06:44.923Z,97972.13
2023-01-19T20:09:15.231Z,97981.78
2023-01-19T20:11:44.277Z,97980.41
2023-01-19T20:14:14.382Z,97988.00
2023-01-19T20:16:42.350Z,97994.75
2023-01-19T20:19:10.605Z,97991.97
2023-01-19T20:21:41.883Z,97988.16
2023-01-19T20:24:13.892Z,97997.56
2023-01-19T20:26:45.186Z,97999.31
2023-01-19T20:29:13.125Z,98003.25
2023-01-19T20:31:44.468Z,97993.78
2023-01-19T20:34:14.881Z,97995.97
2023-01-19T20:36:44.356Z,98008.91
2023-01-19T20:39:12.810Z,98004.59
2023-01-19T20:41:45.179Z,98005.31
2023-01-19T20:44:16.726Z,98002.91
2023-01-19T20:46:44.679Z,98001.97
2023-01-19T20:49:12.991Z,98005.22
2023-01-19T20:51:43.468Z,98010.72
2023-01-19T20:54:12.079Z,98006.00
2023-01-19T20:56:42.822Z,98003.81
2023-01-19T20:59:12.414Z,98012.81
2023-01-19T21:01:42.596Z,98021.09
2023-01-19T21:04:13.771Z,98020.88
2023-01-19T21:06:42.625Z,98016.09
2023-01-19T21:09:14.248Z,98022.19
2023-01-19T21:11:44.769Z,98018.59
2023-01-19T21:14:17.686Z,98025.69
2023-01-19T21:16:48.602Z,98034.09
2023-01-19T21:19:18.327Z,98029.09
2023-01-19T21:21:48.738Z,98035.53
2023-01-19T21:24:16.709Z,98043.09
2023-01-19T21:26:48.340Z,98042.78
2023-01-19T21:29:16.374Z,98042.72
2023-01-19T21:31:47.801Z,98042.34
2023-01-19T21:34:17.929Z,98051.53
2023-01-19T21:36:47.931Z,98049.56
2023-01-19T21:39:17.374Z,98047.88
2023-01-19T21:41:45.472Z,98048.56
2023-01-19T21:44:14.442Z,98043.34
2023-01-19T21:46:43.520Z,98047.50
2023-01-19T21:49:18.418Z,98045.66
2023-01-19T21:51:47.985Z,98056.19
2023-01-19T21:54:16.070Z,98048.72
2023-01-19T21:56:44.197Z,98056.34
2023-01-19T21:59:14.777Z,98062.69
2023-01-19T22:01:44.515Z,98061.63
2023-01-19T22:04:12.815Z,98057.59
2023-01-19T22:06:42.183Z,98062.69
2023-01-19T22:09:10.128Z,98061.78
2023-01-19T22:11:38.099Z,98064.25
2023-01-19T22:14:06.370Z,98068.25
2023-01-19T22:16:34.370Z,98075.81
2023-01-19T22:19:02.740Z,98085.44
2023-01-19T22:21:33.467Z,98087.25
2023-01-19T22:24:04.807Z,98086.25
2023-01-19T22:26:34.869Z,98086.63
2023-01-19T22:31:40.893Z,98088.31
2023-01-19T22:34:10.427Z,98090.09
2023-01-19T22:36:39.459Z,98099.41
2023-01-19T22:39:10.687Z,98075.84
2023-01-19T22:41:40.708Z,98098.78
2023-01-19T22:44:11.567Z,98102.81
2023-01-19T22:46:39.876Z,98096.16
2023-01-19T22:49:08.842Z,98101.97
2023-01-19T22:51:37.413Z,98100.75
2023-01-19T22:54:05.805Z,98103.00
2023-01-19T22:56:37.113Z,98104.94
2023-01-19T22:59:05.674Z,98103.69
2023-01-19T23:01:36.128Z,98107.75
2023-01-19T23:04:05.656Z,98113.81
2023-01-19T23:06:35.150Z,98112.81
2023-01-19T23:09:05.561Z,98112.81
2023-01-19T23:11:37.472Z,98118.75
2023-01-19T23:14:07.060Z,98111.78
2023-01-19T23:16:35.146Z,98116.91
2023-01-19T23:19:03.316Z,98114.44
2023-01-19T23:21:33.267Z,98120.09
2023-01-19T23:24:02.961Z,98115.91
2023-01-19T23:26:38.053Z,98113.88
2023-01-19T23:29:09.493Z,98116.06
2023-01-19T23:31:38.811Z,98124.13
2023-01-19T23:34:08.517Z,98124.97
2023-01-19T23:36:38.400Z,98124.69
2023-01-19T23:39:09.941Z,98124.28
2023-01-19T23:41:37.960Z,98127.16
2023-01-19T23:44:07.354Z,98122.78
2023-01-19T23:46:35.459Z,98124.53
2023-01-19T23:49:03.456Z,98124.38
2023-01-19T23:51:33.193Z,98118.53
2023-01-19T23:54:01.908Z,98127.38
2023-01-19T23:56:32.945Z,98125.94
2023-01-19T23:59:03.710Z,98124.75
